Pagina principale
METAR-TAF:

METAR-TAF

Aeroporti :

Bad Vöslau, Austria

latitudine: 47-57-52N, longitudine: 016-15-34E, altezza: 233 m

Osservazione

Il bollettino è stato emesso 1 ora e 10 minuti fa, alle 07:00 UTC
Vento 10 kt da nord/nord-est
Temperature 19°C
Umidità 56%
Pressione

METAR: LOAV 270700Z 03010KT 40KM FEW040CU 19/10

Ora: 10:10 (08:10 UTC)

Previsione

Il bollettino è stato emesso 1 ora e 10 minuti fa, alle 07:00 UTC
Previsione valida dal 27 alle 07 UTC al 27 alle 15 UTC
Vento 12 kt da nord/nord-est
Visibilità 10 km o più
Poco nuvoloso ad un'altezza di 5000 ft
Temporaneamente
dal 27 alle 07 UTC al 27 alle 15 UTC
Vento 15 kt da nord/nord-est

TAF: LOAV 270700Z 2707/2715 03012KT 9999 FEW050 TEMPO 2707/2715 03015KT

Osservazioni e previsioni meteorologiche di più di 4000 aeroporti (messaggi METAR e TAF).

Le stazioni disponibili sono rappresentate dai dischi gialli e rossi sulla carta.

Puntare il mouse per vedere il nome della stazione.

Clicca sopra per visualizzare le osservazioni e previsioni meteorologiche.

Per cambiare la mappa : fare clic sui pulsanti verdi con una croce nera per ingrandire, il pulsante verde con un trattino per diminuire, o sulla freccia verde per le mappe adiacenti.


METAR-TAF: